Time;durP1;ratioP1;P1;durP2;ratioP2;P2;SDS_P1;SDS_P2;PMS_P1;PMS_P2;Temp;Humidity;BMP_temperature;BMP_pressure;BME280_temperature;BME280_humidity;BME280_pressure;Samples;Min_cycle;Max_cycle;Signal;HPM_P1;HPM_P2
2023/02/04 00:01:27;;;;;;;0.32;0.30;;;13.20;74.00;;;;;;6215741;23;20009;-69
2023/02/04 00:03:53;;;;;;;0.88;0.52;;;13.20;74.00;;;;;;6215408;23;20080;-69
2023/02/04 00:06:18;;;;;;;0.60;0.50;;;13.20;74.00;;;;;;6214138;23;20067;-69
2023/02/04 00:08:44;;;;;;;0.40;0.40;;;13.20;74.00;;;;;;6214148;23;20414;-69
2023/02/04 00:11:10;;;;;;;0.38;0.38;;;13.20;74.00;;;;;;6213767;23;20008;-69
2023/02/04 00:13:35;;;;;;;0.70;0.40;;;13.20;74.10;;;;;;6214251;23;20007;-69
2023/02/04 00:16:01;;;;;;;0.40;0.40;;;13.20;74.10;;;;;;6213841;23;20001;-69
2023/02/04 00:18:27;;;;;;;0.40;0.40;;;13.20;74.00;;;;;;6215305;23;20004;-69
2023/02/04 00:20:53;;;;;;;0.65;0.47;;;13.20;74.00;;;;;;6214137;23;20005;-69
2023/02/04 00:23:19;;;;;;;0.65;0.50;;;13.20;74.00;;;;;;6215480;23;20440;-69
2023/02/04 00:25:44;;;;;;;0.50;0.50;;;13.20;74.00;;;;;;6215403;23;20016;-69
2023/02/04 00:28:10;;;;;;;0.40;0.40;;;13.20;74.00;;;;;;6213811;23;20504;-69
2023/02/04 00:30:35;;;;;;;0.40;0.40;;;13.20;74.10;;;;;;6213288;23;20376;-69
2023/02/04 00:33:01;;;;;;;0.57;0.50;;;13.20;74.00;;;;;;6213434;23;20441;-69
2023/02/04 00:35:27;;;;;;;0.50;0.50;;;13.20;74.00;;;;;;6214063;23;20004;-69
2023/02/04 00:37:53;;;;;;;0.63;0.50;;;13.20;74.00;;;;;;6215300;23;20005;-69
2023/02/04 00:40:18;;;;;;;0.40;0.40;;;13.20;74.10;;;;;;6214054;23;20005;-69
2023/02/04 00:42:44;;;;;;;0.50;0.32;;;13.20;74.10;;;;;;6213811;23;20361;-69
2023/02/04 00:45:10;;;;;;;0.95;0.40;;;13.20;74.10;;;;;;6188847;23;20440;-69
2023/02/04 00:47:36;;;;;;;0.60;0.40;;;13.20;74.00;;;;;;6163825;23;20071;-69
2023/02/04 00:50:02;;;;;;;0.38;0.38;;;13.20;74.00;;;;;;6213741;23;20444;-69
2023/02/04 00:52:27;;;;;;;0.43;0.30;;;13.20;74.00;;;;;;6215354;23;20024;-69
2023/02/04 00:54:53;;;;;;;0.35;0.35;;;13.10;74.10;;;;;;6213619;23;20445;-69
2023/02/04 00:57:19;;;;;;;0.50;0.32;;;13.10;74.00;;;;;;6213744;23;20003;-69
2023/02/04 00:59:44;;;;;;;0.40;0.40;;;13.10;74.00;;;;;;6215422;23;20000;-69
2023/02/04 01:02:10;;;;;;;0.30;0.30;;;13.10;74.00;;;;;;6213285;23;20072;-69
2023/02/04 01:04:36;;;;;;;0.68;0.40;;;13.10;74.10;;;;;;6213755;23;20075;-69
2023/02/04 01:07:01;;;;;;;0.55;0.32;;;13.10;74.10;;;;;;6215142;23;20024;-69
2023/02/04 01:09:27;;;;;;;0.55;0.40;;;13.10;74.10;;;;;;6213507;23;20394;-69
2023/02/04 01:11:52;;;;;;;0.20;0.20;;;13.10;74.00;;;;;;6213607;23;20445;-69
2023/02/04 01:14:18;;;;;;;0.68;0.40;;;13.10;74.00;;;;;;6215091;23;20557;-69
2023/02/04 01:16:44;;;;;;;0.30;0.30;;;13.10;74.00;;;;;;6214737;23;20498;-69
2023/02/04 01:19:10;;;;;;;0.50;0.50;;;13.10;74.00;;;;;;6214990;23;20122;-69
2023/02/04 01:21:36;;;;;;;0.80;0.40;;;13.10;74.00;;;;;;6188594;23;20007;-69
2023/02/04 01:24:01;;;;;;;0.55;0.40;;;13.10;74.10;;;;;;6213471;23;20027;-69
2023/02/04 01:26:27;;;;;;;0.90;0.55;;;13.10;74.10;;;;;;6213241;23;20420;-69
2023/02/04 01:28:52;;;;;;;0.30;0.30;;;13.10;74.00;;;;;;6213737;23;20008;-69
2023/02/04 01:31:18;;;;;;;0.50;0.47;;;13.10;74.00;;;;;;6214617;23;20075;-69
2023/02/04 01:33:44;;;;;;;0.47;0.40;;;13.10;74.00;;;;;;6213636;23;20029;-69
2023/02/04 01:36:09;;;;;;;0.30;0.30;;;13.10;74.00;;;;;;6213555;23;20001;-69
2023/02/04 01:38:35;;;;;;;0.80;0.40;;;13.10;74.10;;;;;;6214852;23;20011;-69
2023/02/04 01:41:01;;;;;;;1.20;0.40;;;13.10;74.00;;;;;;6213573;23;20005;-69
2023/02/04 01:43:27;;;;;;;0.30;0.30;;;13.10;74.10;;;;;;6214679;23;20311;-69
2023/02/04 01:45:52;;;;;;;0.85;0.40;;;13.10;74.10;;;;;;6213112;23;20007;-69
2023/02/04 01:48:19;;;;;;;0.65;0.43;;;13.10;74.10;;;;;;6213440;23;20062;-69
2023/02/04 01:51:00;;;;;;;0.60;0.60;;;13.10;74.00;;;;;;6213466;23;20000;-69
2023/02/04 01:53:26;;;;;;;0.50;0.50;;;13.10;74.10;;;;;;6189230;23;20032;-69
2023/02/04 01:55:51;;;;;;;0.85;0.85;;;13.00;74.00;;;;;;6213377;23;19997;-69
2023/02/04 01:58:17;;;;;;;0.60;0.45;;;13.00;74.00;;;;;;6188394;23;20001;-69
2023/02/04 02:00:43;;;;;;;0.45;0.40;;;13.10;74.10;;;;;;6212990;23;20080;-69
2023/02/04 02:03:10;;;;;;;0.43;0.30;;;13.10;74.00;;;;;;6213198;23;20004;-69
2023/02/04 02:05:47;;;;;;;0.30;0.30;;;13.00;74.00;;;;;;6188835;23;20023;-69
2023/02/04 02:08:13;;;;;;;0.70;0.40;;;13.10;74.10;;;;;;6188417;23;20075;-69
2023/02/04 02:10:39;;;;;;;0.30;0.30;;;13.00;74.00;;;;;;6213383;23;20075;-69
2023/02/04 02:13:05;;;;;;;0.35;0.32;;;13.10;74.10;;;;;;6188052;23;20008;-69
2023/02/04 02:15:31;;;;;;;0.43;0.38;;;13.10;74.10;;;;;;6213388;23;19997;-69
2023/02/04 02:17:57;;;;;;;0.57;0.40;;;13.00;74.00;;;;;;6213306;23;20000;-69
2023/02/04 02:20:23;;;;;;;0.50;0.40;;;13.00;74.00;;;;;;6213248;23;20011;-69
2023/02/04 02:23:23;;;;;;;0.40;0.32;;;13.00;74.00;;;;;;6163517;23;20340;-69
2023/02/04 02:25:49;;;;;;;0.43;0.43;;;13.00;74.00;;;;;;6213000;23;20100;-69
2023/02/04 02:28:17;;;;;;;0.40;0.40;;;13.00;74.00;;;;;;6163220;23;20029;-69
2023/02/04 02:30:45;;;;;;;0.30;0.30;;;13.00;74.10;;;;;;6213205;23;20083;-69
2023/02/04 02:33:13;;;;;;;0.38;0.30;;;13.00;74.10;;;;;;6188697;23;20073;-69
2023/02/04 02:35:42;;;;;;;0.30;0.30;;;13.00;74.10;;;;;;6189003;23;20020;-69
2023/02/04 02:38:09;;;;;;;0.30;0.30;;;13.00;74.10;;;;;;6188638;23;20051;-69
2023/02/04 02:40:35;;;;;;;0.50;0.50;;;13.00;74.00;;;;;;6213188;23;20337;-69
2023/02/04 02:43:01;;;;;;;0.30;0.30;;;13.00;74.10;;;;;;6212732;23;20054;-69
2023/02/04 02:45:28;;;;;;;0.40;0.40;;;13.00;74.10;;;;;;6214611;23;20027;-69
2023/02/04 02:47:55;;;;;;;0.40;0.40;;;13.00;74.10;;;;;;6188263;23;20051;-69
2023/02/04 02:50:22;;;;;;;0.45;0.45;;;13.00;74.10;;;;;;6188271;23;20028;-69
2023/02/04 02:52:47;;;;;;;0.50;0.50;;;13.00;74.10;;;;;;6188597;23;20455;-69
2023/02/04 02:55:15;;;;;;;0.30;0.30;;;13.00;74.10;;;;;;6215591;23;20001;-69
2023/02/04 02:57:40;;;;;;;0.25;0.25;;;12.90;74.10;;;;;;6190109;23;20066;-69
2023/02/04 03:00:14;;;;;;;0.50;0.50;;;13.00;74.20;;;;;;6216509;23;20047;-69
2023/02/04 03:02:40;;;;;;;0.30;0.30;;;13.00;74.20;;;;;;6214685;23;20012;-69
2023/02/04 03:05:06;;;;;;;0.30;0.30;;;12.90;74.10;;;;;;6214962;23;20005;-69
2023/02/04 03:07:32;;;;;;;0.40;0.32;;;13.00;74.20;;;;;;6189827;23;20071;-69
2023/02/04 03:09:57;;;;;;;0.43;0.43;;;13.00;74.10;;;;;;6216344;23;20329;-69
2023/02/04 03:12:23;;;;;;;0.30;0.30;;;13.00;74.10;;;;;;6215882;23;19997;-69
2023/02/04 03:14:49;;;;;;;0.40;0.38;;;13.00;74.10;;;;;;6189751;23;20004;-69
2023/02/04 03:17:14;;;;;;;0.40;0.40;;;13.00;74.20;;;;;;6216074;23;19997;-69
2023/02/04 03:19:40;;;;;;;0.20;0.20;;;13.00;74.20;;;;;;6189801;23;19996;-69
2023/02/04 03:22:06;;;;;;;0.50;0.30;;;12.90;74.10;;;;;;6214733;23;20004;-69
2023/02/04 03:24:32;;;;;;;0.40;0.40;;;12.90;74.10;;;;;;6189619;23;20007;-69
2023/02/04 03:26:58;;;;;;;0.30;0.30;;;12.90;74.10;;;;;;6189560;23;20449;-69
2023/02/04 03:29:23;;;;;;;0.30;0.30;;;12.90;74.10;;;;;;6189508;23;20020;-69
2023/02/04 03:31:49;;;;;;;0.30;0.30;;;12.90;74.20;;;;;;6216078;23;20025;-69
2023/02/04 03:34:14;;;;;;;0.50;0.40;;;12.90;74.20;;;;;;6216050;23;20345;-69
2023/02/04 03:36:40;;;;;;;0.63;0.50;;;12.90;74.10;;;;;;6215950;23;20071;-69
2023/02/04 03:39:06;;;;;;;0.38;0.38;;;12.90;74.10;;;;;;6215908;23;20001;-69
2023/02/04 03:41:31;;;;;;;0.30;0.30;;;12.90;74.10;;;;;;6215881;23;20007;-69
2023/02/04 03:43:57;;;;;;;0.30;0.30;;;12.90;74.10;;;;;;6216026;23;20011;-69
2023/02/04 03:46:24;;;;;;;1.30;0.50;;;12.90;74.20;;;;;;6216014;23;20005;-69
2023/02/04 03:48:50;;;;;;;0.30;0.30;;;12.90;74.10;;;;;;6216029;23;20079;-69
2023/02/04 03:51:15;;;;;;;0.38;0.38;;;12.90;74.10;;;;;;6214220;23;20479;-69
2023/02/04 03:53:41;;;;;;;0.20;0.20;;;12.90;74.10;;;;;;6214537;23;20055;-69
2023/02/04 03:56:07;;;;;;;0.52;0.40;;;12.90;74.10;;;;;;6189327;23;20001;-69
2023/02/04 03:58:33;;;;;;;1.25;0.50;;;12.90;74.10;;;;;;6215706;23;20032;-69
2023/02/04 04:00:58;;;;;;;1.23;0.47;;;12.90;74.10;;;;;;6189701;23;20580;-69
2023/02/04 04:03:24;;;;;;;0.57;0.50;;;12.90;74.10;;;;;;6215638;23;20050;-69
2023/02/04 04:05:49;;;;;;;0.50;0.50;;;12.90;74.10;;;;;;6215746;23;20003;-69
2023/02/04 04:08:15;;;;;;;0.30;0.30;;;12.90;74.20;;;;;;6189183;23;20001;-69
2023/02/04 04:10:41;;;;;;;0.30;0.30;;;12.90;74.20;;;;;;6215503;23;19997;-69
2023/02/04 04:13:06;;;;;;;0.60;0.40;;;12.90;74.20;;;;;;6214167;23;20011;-69
2023/02/04 04:15:32;;;;;;;0.30;0.30;;;12.90;74.20;;;;;;6214214;23;20001;-69
2023/02/04 04:17:58;;;;;;;0.40;0.40;;;12.90;74.20;;;;;;6215726;23;20347;-69
2023/02/04 04:20:24;;;;;;;0.40;0.40;;;12.80;74.10;;;;;;6214158;23;20433;-69
2023/02/04 04:22:51;;;;;;;0.50;0.30;;;12.90;74.20;;;;;;6215718;23;20004;-69
2023/02/04 04:25:16;;;;;;;0.30;0.30;;;12.90;74.20;;;;;;6215080;23;20008;-69
2023/02/04 04:27:42;;;;;;;0.50;0.30;;;12.80;74.10;;;;;;6213754;23;20005;-69
2023/02/04 04:30:08;;;;;;;0.30;0.30;;;12.90;74.20;;;;;;6214175;23;20023;-69
2023/02/04 04:32:34;;;;;;;0.30;0.30;;;12.90;74.10;;;;;;6213874;23;20005;-69
2023/02/04 04:34:59;;;;;;;0.40;0.40;;;12.90;74.10;;;;;;6215494;23;20388;-69
2023/02/04 04:37:25;;;;;;;0.30;0.30;;;12.80;74.10;;;;;;6215449;23;20066;-69
2023/02/04 04:39:51;;;;;;;0.30;0.30;;;12.80;74.20;;;;;;6215192;23;20001;-68
2023/02/04 04:42:16;;;;;;;0.32;0.32;;;12.80;74.20;;;;;;6214104;23;20001;-69
2023/02/04 04:44:42;;;;;;;0.30;0.30;;;12.80;74.20;;;;;;6215195;23;19997;-69
2023/02/04 04:47:08;;;;;;;0.22;0.22;;;12.80;74.20;;;;;;6213895;23;19996;-69
2023/02/04 04:49:34;;;;;;;0.30;0.30;;;12.80;74.20;;;;;;6215269;23;20117;-69
2023/02/04 04:51:59;;;;;;;0.30;0.30;;;12.80;74.20;;;;;;6215411;23;20001;-68
2023/02/04 04:54:25;;;;;;;0.40;0.30;;;12.80;74.10;;;;;;6213345;23;20008;-69
2023/02/04 04:56:51;;;;;;;0.55;0.32;;;12.80;74.10;;;;;;6213779;23;20007;-69
2023/02/04 04:59:16;;;;;;;0.30;0.30;;;12.80;74.20;;;;;;6213758;23;20004;-69
2023/02/04 05:01:42;;;;;;;0.50;0.50;;;12.80;74.20;;;;;;6213737;23;20433;-69
2023/02/04 05:04:07;;;;;;;0.40;0.40;;;12.80;74.20;;;;;;6215232;23;20007;-69
2023/02/04 05:06:33;;;;;;;0.45;0.30;;;12.80;74.20;;;;;;6215116;23;20007;-69
2023/02/04 05:08:59;;;;;;;0.57;0.40;;;12.80;74.20;;;;;;6213264;23;20009;-69
2023/02/04 05:11:24;;;;;;;0.40;0.40;;;12.80;74.30;;;;;;6188604;23;20005;-69
2023/02/04 05:13:50;;;;;;;0.43;0.40;;;12.80;74.20;;;;;;6215166;23;20004;-69
2023/02/04 05:16:17;;;;;;;0.38;0.38;;;12.80;74.20;;;;;;6214890;23;20017;-69
2023/02/04 05:18:42;;;;;;;0.73;0.50;;;12.80;74.20;;;;;;6215175;23;20004;-69
2023/02/04 05:21:08;;;;;;;0.65;0.40;;;12.80;74.20;;;;;;6213555;23;20441;-69
2023/02/04 05:23:33;;;;;;;0.40;0.40;;;12.80;74.20;;;;;;6214909;23;20068;-69
2023/02/04 05:25:59;;;;;;;0.47;0.47;;;12.80;74.20;;;;;;6213193;23;20047;-69
2023/02/04 05:28:25;;;;;;;0.30;0.30;;;12.80;74.20;;;;;;6213499;23;20000;-69
2023/02/04 05:30:50;;;;;;;0.20;0.20;;;12.80;74.20;;;;;;6215326;23;20005;-69
2023/02/04 05:33:16;;;;;;;0.60;0.38;;;12.70;74.10;;;;;;6213466;23;20001;-69
2023/02/04 05:35:42;;;;;;;0.20;0.20;;;12.80;74.20;;;;;;6213386;23;20000;-68
2023/02/04 05:38:07;;;;;;;0.50;0.40;;;12.80;74.20;;;;;;6214638;23;20012;-69
2023/02/04 05:40:33;;;;;;;0.30;0.30;;;12.80;74.20;;;;;;6213132;23;20441;-69
2023/02/04 05:42:59;;;;;;;0.35;0.32;;;12.80;74.20;;;;;;6214998;23;20075;-69
2023/02/04 05:45:25;;;;;;;0.30;0.30;;;12.80;74.20;;;;;;6213333;23;20001;-69
2023/02/04 05:47:51;;;;;;;0.73;0.30;;;12.80;74.20;;;;;;6214731;23;20012;-69
2023/02/04 05:50:16;;;;;;;0.35;0.35;;;12.70;74.10;;;;;;6213346;23;20001;-69
2023/02/04 05:52:42;;;;;;;0.40;0.30;;;12.80;74.20;;;;;;6214748;23;20075;-69
2023/02/04 05:55:09;;;;;;;0.40;0.40;;;12.70;74.20;;;;;;6213438;23;20072;-68
2023/02/04 05:57:35;;;;;;;0.40;0.38;;;12.70;74.20;;;;;;6188705;23;20004;-69
2023/02/04 06:00:01;;;;;;;1.50;0.60;;;12.70;74.20;;;;;;6213354;23;20154;-69
2023/02/04 06:02:26;;;;;;;0.52;0.43;;;12.70;74.20;;;;;;6214827;23;20052;-69
2023/02/04 06:04:52;;;;;;;0.30;0.30;;;12.70;74.20;;;;;;6214795;23;20005;-69
2023/02/04 06:07:17;;;;;;;0.60;0.40;;;12.70;74.20;;;;;;6214463;23;20079;-69
2023/02/04 06:09:43;;;;;;;0.50;0.45;;;12.70;74.20;;;;;;6213318;23;20071;-69
2023/02/04 06:12:09;;;;;;;0.30;0.30;;;12.70;74.20;;;;;;6214969;23;20031;-69
2023/02/04 06:14:35;;;;;;;0.85;0.40;;;12.70;74.20;;;;;;6214640;23;20003;-69
2023/02/04 06:17:00;;;;;;;0.40;0.40;;;12.70;74.10;;;;;;6213413;23;20471;-68
2023/02/04 06:19:26;;;;;;;0.30;0.30;;;12.70;74.20;;;;;;6214719;23;20005;-69
2023/02/04 06:21:52;;;;;;;0.35;0.30;;;12.70;74.20;;;;;;6214902;23;20094;-68
2023/02/04 06:24:17;;;;;;;0.30;0.30;;;12.70;74.20;;;;;;6213389;23;20008;-69
2023/02/04 06:26:43;;;;;;;0.75;0.38;;;12.70;74.20;;;;;;6213016;23;20103;-68
2023/02/04 06:29:08;;;;;;;0.20;0.20;;;12.70;74.20;;;;;;6215935;23;20076;-69
2023/02/04 06:31:37;;;;;;;0.30;0.30;;;12.70;74.20;;;;;;6215213;23;20021;-69
2023/02/04 06:34:02;;;;;;;0.25;0.20;;;12.70;74.20;;;;;;6216290;23;20025;-68
2023/02/04 06:36:28;;;;;;;0.20;0.20;;;12.70;74.20;;;;;;6214962;23;19996;-69
2023/02/04 06:38:54;;;;;;;0.30;0.30;;;12.70;74.20;;;;;;6216896;23;20083;-69
2023/02/04 06:41:19;;;;;;;0.30;0.30;;;12.70;74.30;;;;;;6215080;23;20396;-69
2023/02/04 06:43:45;;;;;;;0.80;0.32;;;12.70;74.20;;;;;;6216492;23;20004;-69
2023/02/04 06:46:10;;;;;;;0.40;0.40;;;12.70;74.20;;;;;;6216622;23;20004;-69
2023/02/04 06:48:36;;;;;;;0.45;0.40;;;12.70;74.30;;;;;;6214673;23;20032;-69
2023/02/04 06:51:02;;;;;;;0.30;0.30;;;12.60;74.20;;;;;;6216642;23;20441;-69
2023/02/04 06:53:27;;;;;;;0.70;0.35;;;12.60;74.20;;;;;;6215084;23;20349;-69
2023/02/04 06:55:53;;;;;;;0.77;0.40;;;12.70;74.20;;;;;;6216361;23;20001;-69
2023/02/04 06:58:19;;;;;;;0.65;0.32;;;12.70;74.30;;;;;;6216523;23;20075;-69
2023/02/04 07:00:44;;;;;;;0.32;0.30;;;12.70;74.20;;;;;;6216505;23;20005;-69
2023/02/04 07:03:10;;;;;;;0.38;0.38;;;12.60;74.20;;;;;;6216081;23;20040;-69
2023/02/04 07:05:35;;;;;;;0.65;0.40;;;12.70;74.20;;;;;;6214937;23;20032;-69
2023/02/04 07:08:01;;;;;;;0.30;0.30;;;12.60;74.20;;;;;;6214896;23;20032;-68
2023/02/04 07:10:27;;;;;;;0.20;0.20;;;12.70;74.20;;;;;;6214646;23;20004;-69
2023/02/04 07:12:52;;;;;;;0.30;0.30;;;12.60;74.20;;;;;;6190059;23;20000;-69
2023/02/04 07:15:18;;;;;;;0.30;0.25;;;12.60;74.20;;;;;;6214698;23;20532;-69
2023/02/04 07:17:44;;;;;;;0.28;0.28;;;12.60;74.20;;;;;;6215944;23;20004;-69
2023/02/04 07:20:10;;;;;;;0.57;0.40;;;12.60;74.30;;;;;;6214978;23;20376;-68
2023/02/04 07:22:35;;;;;;;0.38;0.38;;;12.60;74.30;;;;;;6214676;23;20008;-69
2023/02/04 07:25:01;;;;;;;0.20;0.20;;;12.60;74.20;;;;;;6216361;23;20008;-69
2023/02/04 07:27:27;;;;;;;1.23;0.40;;;12.60;74.30;;;;;;6216070;23;20017;-69
2023/02/04 07:29:52;;;;;;;0.30;0.30;;;12.60;74.20;;;;;;6215954;23;20562;-69
2023/02/04 07:32:18;;;;;;;0.60;0.40;;;12.60;74.20;;;;;;6215962;23;20031;-69
2023/02/04 07:34:44;;;;;;;0.20;0.20;;;12.60;74.20;;;;;;6216000;23;19997;-68
2023/02/04 07:37:09;;;;;;;0.30;0.30;;;12.60;74.20;;;;;;6216054;23;19997;-68
2023/02/04 07:39:35;;;;;;;0.68;0.45;;;12.60;74.20;;;;;;6214443;23;20001;-69
2023/02/04 07:42:00;;;;;;;0.30;0.30;;;12.60;74.20;;;;;;6215896;23;20008;-69
2023/02/04 07:44:26;;;;;;;0.22;0.22;;;12.60;74.20;;;;;;6215979;23;20004;-69
2023/02/04 07:46:52;;;;;;;0.30;0.30;;;12.60;74.20;;;;;;6214627;23;20011;-68
2023/02/04 07:49:17;;;;;;;0.32;0.32;;;12.60;74.20;;;;;;6215789;23;20332;-69
2023/02/04 07:51:43;;;;;;;0.30;0.30;;;12.60;74.20;;;;;;6214490;23;20080;-69
2023/02/04 07:54:08;;;;;;;0.30;0.28;;;12.60;74.20;;;;;;6216149;23;20001;-68
2023/02/04 07:56:34;;;;;;;0.40;0.40;;;12.60;74.20;;;;;;6214261;23;19997;-69
2023/02/04 07:59:00;;;;;;;0.60;0.40;;;12.60;74.20;;;;;;6214447;23;20047;-69
2023/02/04 08:01:25;;;;;;;0.30;0.30;;;12.60;74.30;;;;;;6214157;23;20005;-69
2023/02/04 08:03:51;;;;;;;0.32;0.32;;;12.50;74.20;;;;;;6214214;23;20072;-69
2023/02/04 08:06:17;;;;;;;0.32;0.20;;;12.60;74.20;;;;;;6189182;23;20084;-68
2023/02/04 08:08:42;;;;;;;0.52;0.50;;;12.60;74.20;;;;;;6215625;23;20459;-68
2023/02/04 08:11:08;;;;;;;0.98;0.43;;;12.50;74.20;;;;;;6214319;23;20047;-69
2023/02/04 08:13:33;;;;;;;0.57;0.30;;;12.50;74.20;;;;;;6215699;23;20001;-69
2023/02/04 08:15:59;;;;;;;0.40;0.40;;;12.50;74.20;;;;;;6213842;23;20016;-68
2023/02/04 08:18:25;;;;;;;0.30;0.30;;;12.50;74.30;;;;;;6215812;23;20004;-68
2023/02/04 08:20:50;;;;;;;0.30;0.30;;;12.50;74.30;;;;;;6214249;23;20103;-69
2023/02/04 08:23:16;;;;;;;0.77;0.40;;;12.50;74.30;;;;;;6215553;23;20004;-69
2023/02/04 08:25:44;;;;;;;0.35;0.30;;;12.50;74.30;;;;;;6189158;23;20083;-69
2023/02/04 08:28:09;;;;;;;0.50;0.43;;;12.60;74.30;;;;;;6214282;23;20001;-68
2023/02/04 08:30:35;;;;;;;0.38;0.38;;;12.50;74.30;;;;;;6215348;23;20000;-69
2023/02/04 08:33:00;;;;;;;0.43;0.30;;;12.50;74.20;;;;;;6213916;23;20013;-68
2023/02/04 08:35:26;;;;;;;0.30;0.30;;;12.50;74.30;;;;;;6215464;23;20342;-68
2023/02/04 08:37:52;;;;;;;0.30;0.30;;;12.50;74.30;;;;;;6215496;23;20460;-69
2023/02/04 08:40:18;;;;;;;0.40;0.35;;;12.50;74.30;;;;;;6215770;23;20449;-69
2023/02/04 08:42:43;;;;;;;0.57;0.40;;;12.50;74.20;;;;;;6213934;23;20055;-69
2023/02/04 08:45:09;;;;;;;0.30;0.30;;;12.50;74.30;;;;;;6213612;23;20004;-69
2023/02/04 08:47:35;;;;;;;1.60;0.40;;;12.50;74.30;;;;;;6215360;23;20030;-68
2023/02/04 08:50:00;;;;;;;0.43;0.43;;;12.50;74.30;;;;;;6215303;23;20047;-69
2023/02/04 08:52:26;;;;;;;0.30;0.30;;;12.50;74.20;;;;;;6213505;23;20032;-69
2023/02/04 08:54:51;;;;;;;0.25;0.25;;;12.50;74.20;;;;;;6215432;23;20000;-69
2023/02/04 08:57:17;;;;;;;1.00;0.45;;;12.50;74.20;;;;;;6215027;23;20004;-69
2023/02/04 08:59:44;;;;;;;0.30;0.30;;;12.50;74.20;;;;;;6215092;23;20007;-69
2023/02/04 09:02:10;;;;;;;0.40;0.40;;;12.50;74.20;;;;;;6215393;23;20004;-69
2023/02/04 09:04:35;;;;;;;0.45;0.30;;;12.50;74.30;;;;;;6213647;23;20344;-69
2023/02/04 09:07:01;;;;;;;0.30;0.30;;;12.50;74.30;;;;;;6213775;23;20489;-69
2023/02/04 09:09:27;;;;;;;0.30;0.30;;;12.50;74.30;;;;;;6213634;23;20036;-69
2023/02/04 09:11:52;;;;;;;0.30;0.30;;;12.50;74.30;;;;;;6213513;23;19997;-69
2023/02/04 09:14:18;;;;;;;0.38;0.38;;;12.50;74.30;;;;;;6215515;23;20003;-69
2023/02/04 09:16:43;;;;;;;0.30;0.30;;;12.50;74.30;;;;;;6213543;23;20003;-69
2023/02/04 09:19:11;;;;;;;0.20;0.20;;;12.50;74.30;;;;;;6213603;23;20011;-69
2023/02/04 09:21:37;;;;;;;0.55;0.47;;;12.50;74.30;;;;;;6214943;23;20001;-69
2023/02/04 09:24:02;;;;;;;0.40;0.40;;;12.50;74.30;;;;;;6215033;23;20054;-69
2023/02/04 09:26:28;;;;;;;0.30;0.30;;;12.50;74.30;;;;;;6214816;23;20074;-69
2023/02/04 09:28:54;;;;;;;0.85;0.30;;;12.50;74.30;;;;;;6213300;23;20005;-69
2023/02/04 09:31:19;;;;;;;0.30;0.30;;;12.50;74.30;;;;;;6215023;23;20349;-69
2023/02/04 09:33:45;;;;;;;0.20;0.20;;;12.40;74.20;;;;;;6214829;23;20004;-69
2023/02/04 09:36:11;;;;;;;0.40;0.40;;;12.40;74.30;;;;;;6215012;23;20005;-68
2023/02/04 09:38:36;;;;;;;0.20;0.20;;;12.40;74.20;;;;;;6213407;23;20036;-69
2023/02/04 09:41:05;;;;;;;0.43;0.20;;;12.50;74.30;;;;;;6213374;23;20008;-69
2023/02/04 09:43:33;;;;;;;0.32;0.17;;;12.40;74.30;;;;;;6188664;23;20085;-68
2023/02/04 09:45:59;;;;;;;0.30;0.30;;;12.40;74.20;;;;;;6188712;23;20437;-69
2023/02/04 09:48:24;;;;;;;0.35;0.30;;;12.50;74.30;;;;;;6213096;23;20005;-69
2023/02/04 09:50:50;;;;;;;0.40;0.40;;;12.40;74.20;;;;;;6213444;23;20003;-68
2023/02/04 09:53:21;;;;;;;0.35;0.30;;;12.50;74.30;;;;;;6188444;23;20001;-69
2023/02/04 09:55:47;;;;;;;0.43;0.38;;;12.50;74.30;;;;;;6188465;23;19996;-69
2023/02/04 09:58:20;;;;;;;0.30;0.30;;;12.50;74.30;;;;;;6188282;23;20007;-69
2023/02/04 10:00:47;;;;;;;0.35;0.35;;;12.40;74.20;;;;;;6189682;23;20008;-69
2023/02/04 10:03:17;;;;;;;0.30;0.30;;;12.50;75.30;;;;;;6163422;23;20449;-69
2023/02/04 10:05:44;;;;;;;0.30;0.30;;;12.40;74.30;;;;;;6188507;23;20000;-69
2023/02/04 10:08:14;;;;;;;0.40;0.40;;;12.40;74.20;;;;;;6188302;23;20004;-69
2023/02/04 10:10:40;;;;;;;0.25;0.25;;;12.40;74.20;;;;;;6188397;23;20076;-68
2023/02/04 10:13:07;;;;;;;0.40;0.40;;;12.40;74.30;;;;;;6187998;23;20027;-69
2023/02/04 10:15:33;;;;;;;0.30;0.30;;;12.40;74.20;;;;;;6188721;23;20007;-69
2023/02/04 10:18:01;;;;;;;0.30;0.30;;;12.40;74.30;;;;;;6214609;23;20028;-69
2023/02/04 10:20:27;;;;;;;0.38;0.38;;;12.40;74.30;;;;;;6188490;23;20322;-69
2023/02/04 10:22:53;;;;;;;0.20;0.20;;;12.40;74.30;;;;;;6213205;23;20001;-69
2023/02/04 10:25:20;;;;;;;0.35;0.20;;;12.40;74.40;;;;;;6187787;23;20493;-69
2023/02/04 10:27:54;;;;;;;0.25;0.22;;;12.40;74.20;;;;;;6212848;23;20004;-69
2023/02/04 10:30:32;;;;;;;0.30;0.30;;;12.40;74.30;;;;;;6213367;23;20031;-68
2023/02/04 10:32:58;;;;;;;0.30;0.30;;;12.40;74.30;;;;;;6213129;23;20080;-69
2023/02/04 10:35:23;;;;;;;0.32;0.30;;;12.40;74.20;;;;;;6212974;23;19997;-69
2023/02/04 10:38:02;;;;;;;0.55;0.30;;;12.40;74.30;;;;;;6213036;23;20063;-69
2023/02/04 10:40:36;;;;;;;0.30;0.30;;;12.40;74.40;;;;;;6188064;23;20341;-69
2023/02/04 10:43:10;;;;;;;0.30;0.30;;;12.40;74.20;;;;;;6213101;23;20004;-69
2023/02/04 10:45:36;;;;;;;0.30;0.30;;;12.40;74.30;;;;;;6213054;23;20008;-69
2023/02/04 10:48:02;;;;;;;0.50;0.45;;;12.40;74.30;;;;;;6212842;23;20009;-69
2023/02/04 10:50:30;;;;;;;0.32;0.32;;;12.40;74.30;;;;;;6188040;23;20004;-69
2023/02/04 10:55:50;;;;;;;0.45;0.25;;;12.40;74.40;;;;;;6192018;23;20085;-69
2023/02/04 10:58:19;;;;;;;0.50;0.40;;;12.40;74.40;;;;;;6213011;23;20033;-69
2023/02/04 11:00:45;;;;;;;0.30;0.30;;;12.40;74.40;;;;;;6188372;23;20000;-69
2023/02/04 11:03:11;;;;;;;0.30;0.30;;;12.40;74.30;;;;;;6187899;23;20062;-69
2023/02/04 11:05:37;;;;;;;0.20;0.20;;;12.40;74.40;;;;;;6214340;23;20001;-69
2023/02/04 11:08:15;;;;;;;0.65;0.30;;;12.40;74.30;;;;;;6187940;23;20007;-69
2023/02/04 11:10:40;;;;;;;0.30;0.30;;;12.40;74.40;;;;;;6214053;23;19997;-69
2023/02/04 11:13:06;;;;;;;0.30;0.30;;;12.40;74.40;;;;;;6187903;23;20001;-69
2023/02/04 11:15:43;;;;;;;0.30;0.30;;;12.30;74.30;;;;;;6215118;23;20005;-69
2023/02/04 11:18:21;;;;;;;0.50;0.40;;;12.40;74.40;;;;;;6215028;23;20007;-69
2023/02/04 11:20:47;;;;;;;0.30;0.30;;;12.40;74.40;;;;;;6216317;23;20099;-69
2023/02/04 11:23:33;;;;;;;0.32;0.30;;;12.30;74.30;;;;;;6216072;23;20005;-69
2023/02/04 11:26:17;;;;;;;0.40;0.40;;;12.40;74.40;;;;;;6215750;23;20473;-69
2023/02/04 11:28:43;;;;;;;0.35;0.35;;;12.40;74.40;;;;;;6214646;23;20024;-69
2023/02/04 11:31:48;;;;;;;0.30;0.30;;;12.30;74.40;;;;;;6216230;23;20024;-69
2023/02/04 11:34:14;;;;;;;0.85;0.30;;;12.30;74.30;;;;;;6193904;23;20067;-69
2023/02/04 11:36:58;;;;;;;0.30;0.30;;;12.30;74.40;;;;;;6216042;23;20008;-69
2023/02/04 11:39:33;;;;;;;0.28;0.22;;;12.30;74.30;;;;;;6215759;23;20008;-68
2023/02/04 11:41:59;;;;;;;0.70;0.30;;;12.30;74.30;;;;;;6191319;23;20039;-68
2023/02/04 11:44:25;;;;;;;0.45;0.45;;;12.30;74.30;;;;;;6214582;23;20082;-69
2023/02/04 11:46:54;;;;;;;0.50;0.40;;;12.30;74.40;;;;;;6214477;23;20501;-69
2023/02/04 11:49:20;;;;;;;0.30;0.30;;;12.30;74.40;;;;;;6190090;23;20409;-68
2023/02/04 11:51:45;;;;;;;0.30;0.30;;;12.30;74.40;;;;;;6189657;23;20020;-69
2023/02/04 11:54:12;;;;;;;0.57;0.50;;;12.30;74.30;;;;;;6214394;23;20008;-69
2023/02/04 11:56:38;;;;;;;0.30;0.30;;;12.30;74.30;;;;;;6214437;23;20513;-69
2023/02/04 11:59:04;;;;;;;0.30;0.30;;;12.30;74.40;;;;;;6189441;23;20034;-69
2023/02/04 12:01:31;;;;;;;0.30;0.30;;;12.30;74.30;;;;;;6216063;23;20000;-69
2023/02/04 12:03:58;;;;;;;0.82;0.43;;;12.30;74.30;;;;;;6214370;23;20008;-69
2023/02/04 12:06:25;;;;;;;0.40;0.40;;;12.30;74.30;;;;;;6214520;23;20004;-68
2023/02/04 12:08:51;;;;;;;0.85;0.52;;;12.30;74.30;;;;;;6189085;23;20011;-69
2023/02/04 12:11:29;;;;;;;0.30;0.20;;;12.30;74.30;;;;;;6189370;23;20000;-68
2023/02/04 12:13:56;;;;;;;0.55;0.35;;;12.30;74.30;;;;;;6215902;23;20064;-69
2023/02/04 12:16:22;;;;;;;0.40;0.40;;;12.30;74.30;;;;;;6214337;23;20050;-69
2023/02/04 12:18:47;;;;;;;0.25;0.25;;;12.30;74.40;;;;;;6189264;23;20004;-69
2023/02/04 12:21:13;;;;;;;0.40;0.40;;;12.30;74.40;;;;;;6189211;23;20008;-69
2023/02/04 12:23:41;;;;;;;0.25;0.25;;;12.30;74.40;;;;;;6214084;23;20008;-68
2023/02/04 12:26:07;;;;;;;0.30;0.30;;;12.30;74.40;;;;;;6189428;23;20027;-69
2023/02/04 12:28:32;;;;;;;0.50;0.32;;;12.30;74.40;;;;;;6214140;23;20009;-69
2023/02/04 12:30:58;;;;;;;0.40;0.40;;;12.30;74.50;;;;;;6214200;23;20048;-69
2023/02/04 12:33:24;;;;;;;0.40;0.32;;;12.30;74.40;;;;;;6214025;23;20007;-68
2023/02/04 12:35:49;;;;;;;0.40;0.40;;;12.30;74.40;;;;;;6213970;23;20376;-68
2023/02/04 12:38:15;;;;;;;0.20;0.20;;;12.30;74.40;;;;;;6213923;23;20008;-69
2023/02/04 12:40:41;;;;;;;0.40;0.40;;;12.30;74.40;;;;;;6214103;23;20005;-69
2023/02/04 12:43:07;;;;;;;0.30;0.30;;;12.30;74.40;;;;;;6215502;23;20012;-69
2023/02/04 12:45:32;;;;;;;0.57;0.40;;;12.30;74.30;;;;;;6214129;23;20084;-69
2023/02/04 12:47:58;;;;;;;0.30;0.30;;;12.30;74.40;;;;;;6215195;23;20004;-69